Time;durP1;ratioP1;P1;durP2;ratioP2;P2;SDS_P1;SDS_P2;PMS_P1;PMS_P2;Temp;Humidity;BMP_temperature;BMP_pressure;BME280_temperature;BME280_humidity;BME280_pressure;Samples;Min_cycle;Max_cycle;Signal;HPM_P1;HPM_P2
2022/10/18 00:00:04;;;;;;;5.70;5.07;;;15.30;99.90;;;;;;4990642;28;20180;-68
2022/10/18 00:02:30;;;;;;;7.07;6.33;;;15.30;99.90;;;;;;4989572;28;20736;-68
2022/10/18 00:04:55;;;;;;;6.90;5.60;;;15.30;99.90;;;;;;4990414;28;20460;-68
2022/10/18 00:07:21;;;;;;;8.67;6.50;;;15.20;99.90;;;;;;4990802;28;20246;-68
2022/10/18 00:09:46;;;;;;;6.20;5.70;;;15.20;99.90;;;;;;4991320;28;20238;-68
2022/10/18 00:12:12;;;;;;;7.37;6.03;;;15.20;99.90;;;;;;4990528;28;20191;-68
2022/10/18 00:14:37;;;;;;;7.00;6.33;;;15.20;99.90;;;;;;4993098;28;20175;-68
2022/10/18 00:17:03;;;;;;;6.53;5.93;;;15.10;99.90;;;;;;4991398;28;20183;-68
2022/10/18 00:19:28;;;;;;;8.43;6.30;;;15.10;99.90;;;;;;4993379;28;20180;-68
2022/10/18 00:21:54;;;;;;;6.70;6.00;;;15.10;99.90;;;;;;4989571;28;20186;-68
2022/10/18 00:24:19;;;;;;;9.23;5.67;;;15.10;99.90;;;;;;4989412;28;20207;-68
2022/10/18 00:26:45;;;;;;;7.17;6.47;;;15.10;99.90;;;;;;4990880;28;20188;-68
2022/10/18 00:29:14;;;;;;;7.50;6.67;;;15.10;99.90;;;;;;4989937;28;20194;-68
2022/10/18 00:31:40;;;;;;;10.43;6.63;;;15.10;99.90;;;;;;4989873;28;20184;-69
2022/10/18 00:34:09;;;;;;;7.50;5.87;;;15.10;99.90;;;;;;4995146;28;20459;-69
2022/10/18 00:36:35;;;;;;;6.97;5.23;;;15.10;99.90;;;;;;4986903;28;20800;-68
2022/10/18 00:39:03;;;;;;;8.27;5.73;;;15.00;99.90;;;;;;4991151;28;20521;-68
2022/10/18 00:41:31;;;;;;;6.60;6.00;;;15.00;99.90;;;;;;4990748;28;20186;-69
2022/10/18 00:44:04;;;;;;;9.30;5.03;;;15.00;99.90;;;;;;4991545;28;20593;-68
2022/10/18 00:46:35;;;;;;;10.20;6.30;;;15.00;99.90;;;;;;4989658;28;20518;-68
2022/10/18 00:49:24;;;;;;;7.57;5.80;;;14.90;99.90;;;;;;4992199;28;20437;-68
2022/10/18 00:52:03;;;;;;;7.43;5.30;;;15.00;99.90;;;;;;4986765;28;20454;-68
2022/10/18 00:54:32;;;;;;;10.43;5.87;;;15.00;99.90;;;;;;4990597;28;20447;-68
2022/10/18 00:56:58;;;;;;;10.03;5.67;;;15.10;99.90;;;;;;4990563;28;20439;-68
2022/10/18 00:59:24;;;;;;;8.17;6.30;;;15.10;99.90;;;;;;4988083;28;20453;-68
2022/10/18 01:01:50;;;;;;;6.70;5.20;;;15.10;99.90;;;;;;4989787;28;20292;-68
2022/10/18 01:04:17;;;;;;;12.17;5.80;;;15.20;99.90;;;;;;4990787;28;20450;-68
2022/10/18 01:07:04;;;;;;;6.90;6.20;;;15.20;99.90;;;;;;4990380;28;20202;-68
2022/10/18 01:09:58;;;;;;;6.63;4.90;;;15.10;99.90;;;;;;4989520;28;20438;-68
2022/10/18 01:13:01;;;;;;;6.80;6.10;;;15.10;99.90;;;;;;4989207;28;20474;-68
2022/10/18 01:15:53;;;;;;;6.50;5.23;;;15.10;99.90;;;;;;4995192;28;21188;-68
2022/10/18 01:18:51;;;;;;;8.70;4.50;;;15.10;99.90;;;;;;4992831;28;20500;-68
2022/10/18 01:21:24;;;;;;;6.13;5.33;;;15.10;99.90;;;;;;4994638;28;20848;-69
2022/10/18 01:24:14;;;;;;;6.10;5.50;;;15.20;99.90;;;;;;4993902;28;20526;-69
2022/10/18 01:27:08;;;;;;;14.00;5.80;;;15.20;99.90;;;;;;4990256;28;20453;-68
2022/10/18 01:30:20;;;;;;;5.80;4.90;;;15.30;99.90;;;;;;4993354;28;20522;-68
2022/10/18 01:32:50;;;;;;;6.60;5.63;;;15.30;99.90;;;;;;4991475;28;20458;-69
2022/10/18 01:35:33;;;;;;;10.97;6.20;;;15.30;99.90;;;;;;4992938;28;20470;-69
2022/10/18 01:38:04;;;;;;;5.77;5.27;;;15.30;99.90;;;;;;4992401;28;21900;-68
2022/10/18 01:40:31;;;;;;;7.23;5.07;;;15.40;99.90;;;;;;4994092;28;20466;-68
2022/10/18 01:42:57;;;;;;;7.13;5.30;;;15.40;99.90;;;;;;4996613;28;20808;-68
2022/10/18 01:45:24;;;;;;;6.10;4.60;;;15.50;99.90;;;;;;4995219;28;20431;-68
2022/10/18 01:47:51;;;;;;;6.37;5.00;;;15.50;99.90;;;;;;5004292;28;20235;-68
2022/10/18 01:50:30;;;;;;;5.60;5.10;;;15.50;99.90;;;;;;5001842;28;20832;-68
2022/10/18 01:52:56;;;;;;;4.70;4.10;;;15.50;99.90;;;;;;5006260;28;20824;-68
2022/10/18 01:55:45;;;;;;;9.17;4.10;;;15.50;99.90;;;;;;4996349;28;20462;-68
2022/10/18 01:58:20;;;;;;;7.20;5.37;;;15.50;99.90;;;;;;4997527;28;20183;-68
2022/10/18 02:00:49;;;;;;;8.90;5.00;;;15.60;99.90;;;;;;5005213;28;20437;-68
2022/10/18 02:03:23;;;;;;;6.63;5.13;;;15.60;99.90;;;;;;5002464;28;20546;-68
2022/10/18 02:06:13;;;;;;;5.83;4.57;;;15.60;99.90;;;;;;5001746;28;20518;-68
2022/10/18 02:08:47;;;;;;;7.90;5.47;;;15.60;99.90;;;;;;5005320;28;20798;-68
2022/10/18 02:11:15;;;;;;;6.43;5.20;;;15.50;99.90;;;;;;4997083;28;20473;-68
2022/10/18 02:13:47;;;;;;;7.90;4.73;;;15.60;99.90;;;;;;4992409;28;20482;-68
2022/10/18 02:16:18;;;;;;;9.47;5.03;;;15.50;99.90;;;;;;4991577;28;20462;-69
2022/10/18 02:19:26;;;;;;;5.00;4.60;;;15.60;99.90;;;;;;4992427;28;20427;-68
2022/10/18 02:21:53;;;;;;;5.20;4.70;;;15.60;99.90;;;;;;4979862;28;20447;-69
2022/10/18 02:24:22;;;;;;;5.27;4.53;;;15.60;99.90;;;;;;4993125;28;20454;-68
2022/10/18 02:26:48;;;;;;;10.97;4.60;;;15.60;99.90;;;;;;4993096;28;20493;-68
2022/10/18 02:29:13;;;;;;;5.83;5.23;;;15.60;99.90;;;;;;4992174;28;20814;-68
2022/10/18 02:31:44;;;;;;;5.17;4.67;;;15.60;99.90;;;;;;4992030;28;20215;-68
2022/10/18 02:34:16;;;;;;;10.03;5.07;;;15.70;99.90;;;;;;4992016;28;20207;-68
2022/10/18 02:36:43;;;;;;;7.00;4.90;;;15.70;99.90;;;;;;4992420;28;20494;-69
2022/10/18 02:39:16;;;;;;;6.47;4.43;;;15.60;99.90;;;;;;4991376;28;20501;-68
2022/10/18 02:41:42;;;;;;;6.70;4.63;;;15.60;99.90;;;;;;4992613;28;20439;-68
2022/10/18 02:44:09;;;;;;;6.27;4.30;;;15.60;99.90;;;;;;4992761;28;20536;-68
2022/10/18 02:46:35;;;;;;;6.10;4.40;;;15.60;99.90;;;;;;4992415;28;20831;-68
2022/10/18 02:49:00;;;;;;;5.10;4.33;;;15.60;99.90;;;;;;4992226;28;20434;-69
2022/10/18 02:51:26;;;;;;;4.30;3.90;;;15.60;99.90;;;;;;4991590;28;21128;-68
2022/10/18 02:53:51;;;;;;;4.77;4.37;;;15.70;99.90;;;;;;4992477;28;20564;-68
2022/10/18 02:56:17;;;;;;;9.27;7.60;;;15.70;99.90;;;;;;4993273;28;20211;-68
2022/10/18 02:58:42;;;;;;;4.60;4.23;;;15.80;99.90;;;;;;5000051;28;20182;-68
2022/10/18 03:01:08;;;;;;;6.70;4.67;;;15.90;99.90;;;;;;4995917;28;20180;-68
2022/10/18 03:03:33;;;;;;;5.90;4.63;;;15.90;99.90;;;;;;4991491;28;20199;-68
2022/10/18 03:05:59;;;;;;;5.43;4.40;;;15.90;99.90;;;;;;4992695;28;20282;-68
2022/10/18 03:08:25;;;;;;;7.00;5.07;;;15.90;99.90;;;;;;4993074;28;20289;-68
2022/10/18 03:10:50;;;;;;;5.60;5.10;;;15.90;99.90;;;;;;4990830;28;20184;-68
2022/10/18 03:13:16;;;;;;;5.60;5.03;;;15.90;99.90;;;;;;4992210;28;20305;-68
2022/10/18 03:15:42;;;;;;;5.73;5.03;;;15.90;99.90;;;;;;4990601;28;20218;-68
2022/10/18 03:18:07;;;;;;;5.60;5.00;;;15.90;99.90;;;;;;4990677;28;20322;-68
2022/10/18 03:20:33;;;;;;;13.63;5.17;;;15.90;99.90;;;;;;4990166;28;20188;-68
2022/10/18 03:22:58;;;;;;;5.00;4.53;;;15.90;99.90;;;;;;4991348;28;20234;-68
2022/10/18 03:25:24;;;;;;;4.53;4.20;;;16.00;99.90;;;;;;4992137;28;20602;-68
2022/10/18 03:27:50;;;;;;;5.33;4.70;;;16.00;99.90;;;;;;4992359;28;20190;-68
2022/10/18 03:30:15;;;;;;;5.10;4.43;;;15.90;99.90;;;;;;4991750;28;20239;-68
2022/10/18 03:32:41;;;;;;;6.20;4.90;;;15.90;99.90;;;;;;4991284;28;20199;-68
2022/10/18 03:35:08;;;;;;;4.67;4.27;;;16.00;99.90;;;;;;4991310;28;20215;-68
2022/10/18 03:37:33;;;;;;;5.57;5.07;;;16.00;99.90;;;;;;4990554;28;20183;-68
2022/10/18 03:39:59;;;;;;;5.10;4.03;;;16.00;99.90;;;;;;4991136;28;20454;-68
2022/10/18 03:42:24;;;;;;;6.77;5.10;;;16.00;99.90;;;;;;4989219;28;20223;-68
2022/10/18 03:44:50;;;;;;;5.43;4.47;;;15.90;99.90;;;;;;4991177;28;20175;-68
2022/10/18 03:47:15;;;;;;;7.90;4.80;;;15.90;99.90;;;;;;4990650;28;20187;-68
2022/10/18 03:49:41;;;;;;;5.47;4.97;;;16.00;99.90;;;;;;4990758;28;20201;-69
2022/10/18 03:52:07;;;;;;;5.23;4.73;;;16.00;99.90;;;;;;4990164;28;20642;-67
2022/10/18 03:54:32;;;;;;;8.03;4.87;;;16.00;99.90;;;;;;4987444;28;20176;-67
2022/10/18 03:56:58;;;;;;;4.77;4.37;;;16.00;99.90;;;;;;4991239;28;20203;-67
2022/10/18 03:59:23;;;;;;;5.37;4.70;;;15.90;99.90;;;;;;4990995;28;20215;-67
2022/10/18 04:01:49;;;;;;;7.07;5.37;;;15.90;99.90;;;;;;4992079;28;20262;-67
2022/10/18 04:04:15;;;;;;;10.47;4.27;;;15.80;99.90;;;;;;4996167;28;20210;-67
2022/10/18 04:06:40;;;;;;;4.90;4.50;;;15.70;99.90;;;;;;4991376;28;20234;-67
2022/10/18 04:09:06;;;;;;;11.63;5.10;;;15.60;99.90;;;;;;4990545;28;20175;-67
2022/10/18 04:11:32;;;;;;;6.70;5.00;;;15.60;99.90;;;;;;4982643;28;20183;-67
2022/10/18 04:13:57;;;;;;;4.73;4.33;;;15.60;99.90;;;;;;4991167;28;20767;-66
2022/10/18 04:16:23;;;;;;;6.13;4.40;;;15.60;99.90;;;;;;4990181;28;20211;-67
2022/10/18 04:18:48;;;;;;;8.80;5.40;;;15.60;99.90;;;;;;4992092;28;20198;-67
2022/10/18 04:21:14;;;;;;;5.43;4.83;;;15.70;99.90;;;;;;5003051;28;20671;-67
2022/10/18 04:23:39;;;;;;;9.93;4.50;;;15.70;99.90;;;;;;5000696;28;20212;-67
2022/10/18 04:26:05;;;;;;;5.60;5.03;;;15.70;99.90;;;;;;4999708;28;20189;-67
2022/10/18 04:28:32;;;;;;;4.57;4.27;;;15.70;99.90;;;;;;4996370;28;20194;-67
2022/10/18 04:30:58;;;;;;;5.20;4.17;;;15.70;99.90;;;;;;4996475;28;20441;-67
2022/10/18 04:33:23;;;;;;;4.53;4.23;;;15.80;99.90;;;;;;4999744;28;20560;-67
2022/10/18 04:35:51;;;;;;;7.80;6.37;;;15.90;99.90;;;;;;5003130;28;20218;-67
2022/10/18 04:38:17;;;;;;;5.53;4.50;;;15.90;99.90;;;;;;5002161;28;20611;-67
2022/10/18 04:40:42;;;;;;;4.97;4.47;;;16.00;99.90;;;;;;5015020;28;20534;-67
2022/10/18 04:43:08;;;;;;;5.20;4.70;;;16.10;99.90;;;;;;5000914;28;20618;-67
2022/10/18 04:45:33;;;;;;;8.80;4.10;;;16.20;99.90;;;;;;4996638;28;20180;-67
2022/10/18 04:47:59;;;;;;;4.77;4.37;;;16.20;99.90;;;;;;4991767;28;20242;-67
2022/10/18 04:50:25;;;;;;;5.10;4.60;;;16.20;99.90;;;;;;4990165;28;20662;-67
2022/10/18 04:52:52;;;;;;;9.50;4.50;;;16.30;99.90;;;;;;4992825;28;20203;-67
2022/10/18 04:55:17;;;;;;;4.73;4.30;;;16.20;99.90;;;;;;5010140;28;20233;-67
2022/10/18 04:57:43;;;;;;;5.17;4.67;;;16.30;99.90;;;;;;4995558;28;20471;-67
2022/10/18 05:00:09;;;;;;;5.03;4.43;;;16.30;99.90;;;;;;5001942;28;20692;-67
2022/10/18 05:02:34;;;;;;;4.60;4.20;;;16.40;99.90;;;;;;5001919;28;20233;-67
2022/10/18 05:05:00;;;;;;;5.93;4.73;;;16.50;99.90;;;;;;4996423;28;20453;-67
2022/10/18 05:07:25;;;;;;;3.70;3.50;;;16.60;99.90;;;;;;4998831;28;20226;-67
2022/10/18 05:09:51;;;;;;;4.70;4.30;;;16.60;99.90;;;;;;5003630;28;20175;-66
2022/10/18 05:12:16;;;;;;;5.43;4.90;;;16.60;99.90;;;;;;5000916;28;20250;-67
2022/10/18 05:14:42;;;;;;;5.63;4.47;;;16.60;99.90;;;;;;4994920;28;20215;-67
2022/10/18 05:17:07;;;;;;;7.20;4.50;;;16.70;99.90;;;;;;4992752;28;20210;-67
2022/10/18 05:19:33;;;;;;;4.60;4.30;;;16.60;99.90;;;;;;4993510;28;20267;-66
2022/10/18 05:21:58;;;;;;;5.90;4.70;;;16.60;99.90;;;;;;4994591;28;20629;-67
2022/10/18 05:24:24;;;;;;;8.20;5.10;;;16.60;99.90;;;;;;4994480;28;20262;-69
2022/10/18 05:26:50;;;;;;;7.50;5.97;;;16.50;99.90;;;;;;4993114;28;20191;-68
2022/10/18 05:29:15;;;;;;;7.20;4.90;;;16.50;99.90;;;;;;4997186;28;20669;-67
2022/10/18 05:31:41;;;;;;;6.10;4.80;;;16.40;99.90;;;;;;4995029;28;20195;-67
2022/10/18 05:34:06;;;;;;;6.50;4.60;;;16.40;99.90;;;;;;4994057;28;20211;-67
2022/10/18 05:36:32;;;;;;;5.17;4.67;;;16.40;99.90;;;;;;4991572;28;20208;-67
2022/10/18 05:38:57;;;;;;;8.40;4.50;;;16.40;99.90;;;;;;4993080;28;20191;-67
2022/10/18 05:41:23;;;;;;;5.40;4.47;;;16.40;99.90;;;;;;4991844;28;20267;-67
2022/10/18 05:43:48;;;;;;;8.17;5.03;;;16.40;99.90;;;;;;4989826;28;20196;-67
2022/10/18 05:46:14;;;;;;;8.20;4.90;;;16.40;99.90;;;;;;4993128;28;20195;-67
2022/10/18 05:48:39;;;;;;;5.07;4.60;;;16.40;99.90;;;;;;4992020;28;20183;-67
2022/10/18 05:51:05;;;;;;;4.97;4.47;;;16.40;99.90;;;;;;4994477;28;20187;-67
2022/10/18 05:53:30;;;;;;;8.37;5.07;;;16.40;99.90;;;;;;5003885;28;20240;-67
2022/10/18 05:56:00;;;;;;;5.33;4.83;;;16.40;99.90;;;;;;4994794;28;20298;-67
2022/10/18 05:58:25;;;;;;;9.73;8.87;;;16.40;99.90;;;;;;4997872;28;20807;-67
2022/10/18 06:00:51;;;;;;;5.60;4.53;;;16.40;99.90;;;;;;5003659;28;20431;-68
2022/10/18 06:03:17;;;;;;;6.40;5.27;;;16.40;99.90;;;;;;5002425;28;20701;-69
2022/10/18 06:05:42;;;;;;;7.27;5.90;;;16.40;99.90;;;;;;4997208;28;20270;-69
2022/10/18 06:08:08;;;;;;;8.70;5.17;;;16.40;99.90;;;;;;4995999;28;20191;-69
2022/10/18 06:10:34;;;;;;;6.93;4.53;;;16.40;99.90;;;;;;5004315;28;20188;-69
2022/10/18 06:12:59;;;;;;;5.37;4.77;;;16.40;99.90;;;;;;5000652;28;20227;-67
2022/10/18 06:15:25;;;;;;;4.77;4.30;;;16.40;99.90;;;;;;4993482;28;20200;-67
2022/10/18 06:17:51;;;;;;;5.83;5.23;;;16.40;99.90;;;;;;5001585;28;20183;-67
2022/10/18 06:20:17;;;;;;;10.87;5.50;;;16.50;99.90;;;;;;4997362;28;20442;-66
2022/10/18 06:22:42;;;;;;;4.93;4.40;;;16.60;99.90;;;;;;4992087;28;20204;-69
2022/10/18 06:25:08;;;;;;;7.17;4.93;;;16.70;99.90;;;;;;4988232;28;20209;-69
2022/10/18 06:27:34;;;;;;;6.07;5.57;;;16.80;99.90;;;;;;4992062;28;20187;-66
2022/10/18 06:29:59;;;;;;;6.37;5.50;;;16.90;99.90;;;;;;4992795;28;20492;-67
2022/10/18 06:32:25;;;;;;;7.70;5.97;;;17.00;99.90;;;;;;4991455;28;20215;-67
2022/10/18 06:34:50;;;;;;;5.30;4.80;;;17.20;99.90;;;;;;4992265;28;20258;-66
2022/10/18 06:37:16;;;;;;;8.13;5.23;;;17.40;99.90;;;;;;4992754;28;20202;-67
2022/10/18 06:39:41;;;;;;;4.20;3.87;;;17.70;99.90;;;;;;4975080;28;20214;-67
2022/10/18 06:42:07;;;;;;;4.90;4.40;;;17.90;99.90;;;;;;4963735;28;20266;-67
2022/10/18 06:44:33;;;;;;;4.70;4.30;;;18.10;99.90;;;;;;4992191;28;20315;-67
2022/10/18 06:47:01;;;;;;;9.87;5.83;;;18.20;99.90;;;;;;4989516;28;20601;-67
2022/10/18 06:49:27;;;;;;;10.63;5.33;;;18.20;99.90;;;;;;4987221;28;21102;-67
2022/10/18 06:51:52;;;;;;;5.43;4.93;;;18.20;99.90;;;;;;4990546;28;20449;-67
2022/10/18 06:54:18;;;;;;;5.53;5.03;;;18.10;99.90;;;;;;5010029;28;20275;-68
2022/10/18 06:56:44;;;;;;;6.80;4.60;;;18.10;99.90;;;;;;4988120;28;20200;-68
2022/10/18 06:59:09;;;;;;;5.43;4.87;;;18.00;99.90;;;;;;4989256;28;20188;-68
2022/10/18 07:01:35;;;;;;;5.53;4.47;;;18.00;99.90;;;;;;4989392;28;20203;-68
2022/10/18 07:04:00;;;;;;;4.30;4.00;;;18.00;99.90;;;;;;4986759;28;20204;-68
2022/10/18 07:06:26;;;;;;;5.53;4.53;;;18.00;99.90;;;;;;4973450;28;20231;-68
2022/10/18 07:08:53;;;;;;;7.73;4.53;;;18.00;99.90;;;;;;4975184;28;20178;-67
2022/10/18 07:11:24;;;;;;;6.17;5.10;;;18.00;99.90;;;;;;4981533;28;20211;-68
2022/10/18 07:13:50;;;;;;;7.27;4.00;;;18.00;99.90;;;;;;4973179;28;20467;-67
2022/10/18 07:16:18;;;;;;;5.17;4.20;;;18.00;99.90;;;;;;4974300;28;20467;-67
2022/10/18 07:18:48;;;;;;;6.10;4.80;;;18.10;99.90;;;;;;4992007;28;20481;-68
2022/10/18 07:21:16;;;;;;;6.17;4.20;;;18.10;99.90;;;;;;5005630;28;20432;-68
2022/10/18 07:23:45;;;;;;;5.73;5.13;;;18.10;99.90;;;;;;4990372;28;20508;-68
2022/10/18 07:26:16;;;;;;;6.97;4.60;;;18.10;99.90;;;;;;4975755;28;20828;-68
2022/10/18 07:28:43;;;;;;;5.37;4.90;;;18.10;99.90;;;;;;4980574;28;20453;-68
2022/10/18 07:31:09;;;;;;;5.53;5.03;;;18.10;99.90;;;;;;4988114;28;20435;-67
2022/10/18 07:33:39;;;;;;;8.80;4.47;;;18.10;99.90;;;;;;4974157;28;20447;-67
2022/10/18 07:36:07;;;;;;;5.80;4.40;;;18.10;99.90;;;;;;4976405;28;20465;-67
2022/10/18 07:38:33;;;;;;;4.60;4.20;;;18.10;99.90;;;;;;4979119;28;20825;-68
2022/10/18 07:41:00;;;;;;;9.47;5.10;;;18.20;99.90;;;;;;4989972;28;20513;-69
2022/10/18 07:43:27;;;;;;;8.10;5.30;;;18.20;99.90;;;;;;4976516;28;20805;-68
2022/10/18 07:45:54;;;;;;;5.07;4.43;;;18.30;99.90;;;;;;4982377;28;20427;-68
2022/10/18 07:48:19;;;;;;;9.30;4.53;;;18.40;99.90;;;;;;4973536;28;20447;-68
2022/10/18 07:50:45;;;;;;;6.30;4.87;;;18.50;99.90;;;;;;4985904;28;20869;-68
2022/10/18 07:53:10;;;;;;;5.33;4.80;;;18.60;99.90;;;;;;4973891;28;20206;-69
2022/10/18 07:55:36;;;;;;;4.13;3.50;;;18.60;99.90;;;;;;4978691;28;20205;-68
2022/10/18 07:58:01;;;;;;;6.70;5.13;;;18.70;99.90;;;;;;4992771;28;20191;-68
2022/10/18 08:00:27;;;;;;;5.40;4.97;;;18.80;99.90;;;;;;4989447;28;20180;-68
2022/10/18 08:02:59;;;;;;;4.57;4.17;;;19.00;99.90;;;;;;4986389;28;20207;-69
2022/10/18 08:05:25;;;;;;;6.00;4.83;;;19.00;99.90;;;;;;4973612;28;20179;-68
2022/10/18 08:07:51;;;;;;;5.00;4.50;;;19.20;99.90;;;;;;4975063;28;20423;-68
2022/10/18 08:10:17;;;;;;;6.13;5.07;;;19.20;99.90;;;;;;4988847;28;20995;-68
2022/10/18 08:12:42;;;;;;;4.30;3.90;;;19.30;99.90;;;;;;4992782;28;20222;-68
2022/10/18 08:15:08;;;;;;;5.93;4.63;;;19.40;99.90;;;;;;4989135;28;20230;-68
2022/10/18 08:17:34;;;;;;;4.70;4.13;;;19.50;99.90;;;;;;4981430;28;20649;-68
2022/10/18 08:19:59;;;;;;;6.40;5.80;;;19.40;99.90;;;;;;4989279;28;20180;-68
2022/10/18 08:22:25;;;;;;;4.50;3.80;;;19.50;99.90;;;;;;4984820;28;20243;-68
2022/10/18 08:24:50;;;;;;;5.60;5.03;;;19.50;99.90;;;;;;4973240;28;20660;-68
2022/10/18 08:27:16;;;;;;;5.13;4.43;;;19.50;99.90;;;;;;4979206;28;20238;-68
2022/10/18 08:29:41;;;;;;;5.40;4.50;;;19.60;99.90;;;;;;4979199;28;20210;-68
2022/10/18 08:32:07;;;;;;;4.83;4.40;;;19.70;99.90;;;;;;4992280;28;20518;-68
2022/10/18 08:34:34;;;;;;;7.10;4.43;;;19.70;99.90;;;;;;4980701;28;20251;-68
2022/10/18 08:36:59;;;;;;;4.60;4.20;;;19.70;99.90;;;;;;4973042;28;20215;-69
2022/10/18 08:39:25;;;;;;;5.40;4.90;;;19.90;99.90;;;;;;4984867;28;20422;-68
2022/10/18 08:41:57;;;;;;;6.80;5.00;;;20.00;99.90;;;;;;4992515;28;20546;-67
2022/10/18 08:44:29;;;;;;;7.00;4.37;;;20.10;99.90;;;;;;4986395;28;20207;-68
2022/10/18 08:47:00;;;;;;;14.93;4.90;;;20.30;99.90;;;;;;4973252;28;20411;-68
2022/10/18 08:49:45;;;;;;;6.40;5.00;;;20.60;99.90;;;;;;4974963;28;20514;-68
2022/10/18 08:52:33;;;;;;;5.93;4.43;;;20.70;99.90;;;;;;4977132;28;20431;-68
2022/10/18 08:55:01;;;;;;;6.60;5.70;;;21.00;99.90;;;;;;4976282;28;20438;-68
2022/10/18 08:57:27;;;;;;;5.30;4.67;;;21.10;99.90;;;;;;4977696;28;20459;-67
2022/10/18 08:59:53;;;;;;;5.40;3.70;;;21.50;99.90;;;;;;4978063;28;20418;-68
2022/10/18 09:02:51;;;;;;;6.60;4.30;;;22.70;99.90;;;;;;4980341;28;20426;-68
2022/10/18 09:05:35;;;;;;;4.90;4.50;;;23.30;99.90;;;;;;4973012;28;20173;-67
2022/10/18 09:08:12;;;;;;;7.60;4.60;;;22.80;99.90;;;;;;4984286;28;20426;-69
2022/10/18 09:11:01;;;;;;;6.90;3.90;;;23.70;99.90;;;;;;4988935;28;20760;-68
2022/10/18 09:13:42;;;;;;;9.87;4.90;;;25.00;99.90;;;;;;4991292;28;20462;-68
2022/10/18 09:16:17;;;;;;;4.60;4.17;;;25.80;99.90;;;;;;4978582;28;20553;-68
2022/10/18 09:19:08;;;;;;;4.67;4.20;;;26.00;99.90;;;;;;4985561;28;20435;-69
2022/10/18 09:21:53;;;;;;;4.50;3.87;;;26.10;99.90;;;;;;4984670;28;20435;-68
2022/10/18 09:24:26;;;;;;;4.57;4.27;;;27.10;99.90;;;;;;4983155;28;20458;-69
2022/10/18 09:27:00;;;;;;;4.50;4.10;;;28.80;98.10;;;;;;4978673;28;20492;-69
2022/10/18 09:29:42;;;;;;;4.60;4.07;;;29.60;95.00;;;;;;4975824;28;20423;-69
2022/10/18 09:32:23;;;;;;;6.23;4.27;;;30.50;91.80;;;;;;4991448;28;20426;-68
2022/10/18 09:35:12;;;;;;;7.17;4.13;;;30.10;90.30;;;;;;4988163;28;20426;-70
2022/10/18 09:37:39;;;;;;;6.07;3.93;;;30.00;89.00;;;;;;4985981;28;20928;-69
2022/10/18 09:40:20;;;;;;;8.37;3.80;;;30.80;87.30;;;;;;4982602;28;20501;-69
2022/10/18 09:43:01;;;;;;;7.40;4.00;;;30.10;85.40;;;;;;4995623;28;20445;-70
2022/10/18 09:45:36;;;;;;;7.10;4.20;;;29.80;86.50;;;;;;4976651;28;20454;-68
2022/10/18 09:48:20;;;;;;;4.80;3.40;;;29.70;88.20;;;;;;4975741;28;20452;-69
2022/10/18 09:51:20;;;;;;;4.27;3.87;;;30.90;84.70;;;;;;4988513;28;20421;-69
2022/10/18 09:54:19;;;;;;;3.93;3.63;;;32.20;81.20;;;;;;4993069;28;20967;-69
2022/10/18 09:57:08;;;;;;;4.33;3.93;;;32.90;74.30;;;;;;4988982;28;20847;-70
2022/10/18 09:59:41;;;;;;;4.77;4.07;;;32.20;73.80;;;;;;4978770;28;20419;-68
2022/10/18 10:02:12;;;;;;;7.23;3.77;;;32.90;71.50;;;;;;4980276;28;20514;-68
2022/10/18 10:04:37;;;;;;;7.00;3.60;;;32.20;71.00;;;;;;4987920;28;20423;-70
2022/10/18 10:07:20;;;;;;;3.87;3.47;;;33.00;69.10;;;;;;4993651;28;20496;-69
2022/10/18 10:09:47;;;;;;;5.57;4.30;;;32.40;69.50;;;;;;4983441;28;20179;-69
2022/10/18 10:12:28;;;;;;;5.10;3.30;;;31.70;69.50;;;;;;4989659;28;20438;-68
2022/10/18 10:14:54;;;;;;;6.43;3.07;;;31.70;70.70;;;;;;4983916;28;20546;-68
2022/10/18 10:17:24;;;;;;;4.20;3.57;;;32.00;68.70;;;;;;4989906;28;20450;-68
2022/10/18 10:20:00;;;;;;;4.63;4.13;;;32.00;68.00;;;;;;4984089;28;20180;-68
2022/10/18 10:22:38;;;;;;;3.90;3.60;;;32.20;67.80;;;;;;4984853;28;20866;-68
2022/10/18 10:25:04;;;;;;;4.47;3.97;;;32.10;68.20;;;;;;4981371;28;20914;-69
2022/10/18 10:27:42;;;;;;;6.83;4.17;;;32.30;69.30;;;;;;4991879;28;20428;-68
2022/10/18 10:30:35;;;;;;;5.70;4.50;;;31.70;70.20;;;;;;4990169;28;20422;-69
2022/10/18 10:33:01;;;;;;;5.90;4.33;;;29.70;75.50;;;;;;4985799;28;20502;-69
2022/10/18 10:35:33;;;;;;;9.00;3.67;;;29.20;79.20;;;;;;4987843;28;20552;-68
2022/10/18 10:37:59;;;;;;;9.23;5.17;;;29.50;80.00;;;;;;4982158;28;20517;-69
2022/10/18 10:40:45;;;;;;;5.70;4.57;;;30.90;76.20;;;;;;4988564;28;20860;-69
2022/10/18 10:43:27;;;;;;;4.13;3.77;;;32.10;72.10;;;;;;4993475;28;20299;-70
2022/10/18 10:46:17;;;;;;;4.50;4.03;;;32.80;70.10;;;;;;4994469;28;20418;-68
2022/10/18 10:48:49;;;;;;;8.20;4.03;;;31.50;72.00;;;;;;4983474;28;20473;-69
2022/10/18 10:51:26;;;;;;;5.20;4.70;;;29.80;75.90;;;;;;4990698;28;20439;-69
2022/10/18 10:54:11;;;;;;;5.50;4.30;;;28.70;79.90;;;;;;4993099;28;21150;-69
2022/10/18 10:57:03;;;;;;;5.20;4.70;;;27.80;84.70;;;;;;4991157;28;20465;-69
2022/10/18 10:59:37;;;;;;;7.70;4.30;;;27.40;87.90;;;;;;4987977;28;20423;-69
2022/10/18 11:02:17;;;;;;;8.93;4.77;;;26.70;90.50;;;;;;4992211;28;21015;-70
2022/10/18 11:04:45;;;;;;;7.30;4.37;;;26.00;93.20;;;;;;4986852;28;20513;-71
2022/10/18 11:07:34;;;;;;;4.57;4.23;;;25.80;95.10;;;;;;4985244;28;20426;-68
2022/10/18 11:10:09;;;;;;;4.87;4.10;;;25.30;95.90;;;;;;4985290;28;20435;-69
2022/10/18 11:12:45;;;;;;;6.13;4.57;;;24.90;98.80;;;;;;4989677;28;20529;-70
2022/10/18 11:15:10;;;;;;;4.00;3.70;;;24.90;99.50;;;;;;4987873;28;20439;-70
2022/10/18 11:18:06;;;;;;;5.00;4.50;;;24.90;99.90;;;;;;4982462;28;20438;-70
2022/10/18 11:20:42;;;;;;;7.90;4.60;;;24.90;99.90;;;;;;4985480;28;20179;-71
2022/10/18 11:23:12;;;;;;;4.57;3.80;;;25.00;99.90;;;;;;4993139;28;20549;-70
2022/10/18 11:26:07;;;;;;;6.90;4.33;;;25.20;99.90;;;;;;4993250;28;20439;-69
2022/10/18 11:28:38;;;;;;;5.77;4.70;;;25.20;99.90;;;;;;4984905;28;20450;-70
2022/10/18 11:31:41;;;;;;;7.97;4.50;;;25.30;99.90;;;;;;4989821;28;20454;-70
2022/10/18 11:34:31;;;;;;;5.13;4.40;;;25.40;99.90;;;;;;4992578;28;20444;-69
2022/10/18 11:37:18;;;;;;;5.63;5.13;;;25.70;99.90;;;;;;4982528;28;21006;-69
2022/10/18 11:40:04;;;;;;;7.13;5.70;;;25.80;99.70;;;;;;4987467;28;20769;-69
2022/10/18 11:42:40;;;;;;;6.30;4.40;;;26.90;97.30;;;;;;4992880;28;21078;-69
2022/10/18 11:45:46;;;;;;;7.37;4.60;;;27.50;94.90;;;;;;4993449;28;20414;-69
2022/10/18 11:48:15;;;;;;;12.97;5.10;;;27.00;95.80;;;;;;4985142;28;20434;-70
2022/10/18 11:51:03;;;;;;;4.90;4.43;;;26.40;97.90;;;;;;4989660;28;20419;-69
2022/10/18 11:54:08;;;;;;;11.30;4.67;;;25.70;99.80;;;;;;4968763;28;20479;-69
2022/10/18 11:56:46;;;;;;;7.20;4.90;;;25.10;99.90;;;;;;4973662;28;20903;-70
2022/10/18 11:59:26;;;;;;;8.97;5.77;;;24.40;99.90;;;;;;4973996;28;20875;-70
2022/10/18 12:01:55;;;;;;;11.33;4.83;;;23.90;99.90;;;;;;4976963;28;20789;-70
2022/10/18 12:04:26;;;;;;;7.93;5.37;;;24.00;99.90;;;;;;4990360;28;20442;-69
2022/10/18 12:06:55;;;;;;;5.00;4.50;;;25.30;99.90;;;;;;4973994;28;20945;-69
2022/10/18 12:09:42;;;;;;;7.73;5.47;;;26.70;99.70;;;;;;4975518;28;20521;-69
2022/10/18 12:12:20;;;;;;;7.87;5.00;;;28.00;96.20;;;;;;4981228;28;20462;-68
2022/10/18 12:15:01;;;;;;;4.80;4.20;;;29.90;91.20;;;;;;4973453;28;20515;-68
2022/10/18 12:17:35;;;;;;;7.27;4.90;;;30.40;88.60;;;;;;4980136;28;20531;-68
2022/10/18 12:20:13;;;;;;;7.10;5.20;;;29.80;88.50;;;;;;4981336;28;20414;-69
2022/10/18 12:22:44;;;;;;;11.30;4.63;;;29.30;90.40;;;;;;4992975;28;20898;-69
2022/10/18 12:25:15;;;;;;;8.27;3.93;;;30.40;88.30;;;;;;4988279;28;20438;-69
2022/10/18 12:27:51;;;;;;;4.03;3.10;;;32.60;80.60;;;;;;4973295;28;20422;-69
2022/10/18 12:30:33;;;;;;;2.87;2.60;;;35.80;67.10;;;;;;4982117;28;20904;-69
2022/10/18 12:33:12;;;;;;;3.13;2.77;;;36.80;60.50;;;;;;4972788;28;20486;-69
2022/10/18 12:36:15;;;;;;;3.00;2.80;;;36.70;57.30;;;;;;4973177;28;20466;-69
2022/10/18 12:38:44;;;;;;;3.50;2.50;;;35.90;57.40;;;;;;4980528;28;20816;-69
2022/10/18 12:41:19;;;;;;;3.93;2.20;;;36.70;55.80;;;;;;4989630;28;20414;-69
2022/10/18 12:43:52;;;;;;;2.50;2.30;;;37.60;53.60;;;;;;4991955;28;20430;-70
2022/10/18 12:46:17;;;;;;;2.47;2.30;;;37.70;51.90;;;;;;4992336;28;20822;-69
2022/10/18 12:48:47;;;;;;;3.20;2.60;;;37.90;50.50;;;;;;4992093;28;20554;-69
2022/10/18 12:51:18;;;;;;;2.57;2.37;;;38.40;50.30;;;;;;4981611;28;20514;-69
2022/10/18 12:54:11;;;;;;;2.20;2.00;;;38.90;49.20;;;;;;4972806;28;20439;-70
2022/10/18 12:56:41;;;;;;;2.90;2.70;;;40.50;47.20;;;;;;4979446;28;20517;-70
2022/10/18 12:59:13;;;;;;;4.77;2.30;;;41.30;45.90;;;;;;4973793;28;20434;-70
2022/10/18 13:01:51;;;;;;;4.10;2.90;;;42.30;44.40;;;;;;4989770;28;20501;-70
2022/10/18 13:04:26;;;;;;;6.07;3.07;;;42.80;42.60;;;;;;4985183;28;20446;-70
2022/10/18 13:07:17;;;;;;;5.23;2.60;;;41.90;42.40;;;;;;4983249;28;20473;-70